Salten — LMFM — position and weather

sailwx.info

Track history (hours):
 
Tides and Currents Weather Stations Pressure Air Temp Water Temp Dewpoint Dewpoint Depression Visibility Wind Speed Wind Dir Waves Ship Positions

Salten

Last reported at 2014-Sep-02 14:26 UTC. Time now 2014-Sep-03 02:35 UTC.
Position N 67°10' E 014°03'.

Length 41 m; draft 1.5 m.

Type: High speed craft. MMSI: 259387000.

Date/timePositionNaut miles runAvg speedWind from/ knotsBaromVisibWave heightAir tempDewpointWater temp
2014-Sep-02 14:26N 67°10' E 014°03'1011.9
2014-Sep-02 13:33N 67°17' E 014°22'0 0.0
2014-Sep-02 12:33N 67°17' E 014°22'0 0.0
2014-Sep-02 11:33N 67°17' E 014°22'0 0.0
2014-Sep-02 10:33N 67°17' E 014°22'0 0.0
2014-Sep-02 09:33N 67°17' E 014°22'0 0.0
2014-Sep-02 08:33N 67°17' E 014°22'1212.2
2014-Sep-02 07:33N 67°28' E 014°33'5 0.3
2014-Sep-01 15:33N 67°25' E 014°27'8 7.8
2014-Sep-01 14:33N 67°17' E 014°22'0 0.0
2014-Sep-01 13:33N 67°17' E 014°22'0 0.0
2014-Sep-01 12:33N 67°17' E 014°22'0 0.0
2014-Sep-01 11:33N 67°17' E 014°22'0 0.0
2014-Sep-01 10:33N 67°17' E 014°22'0 0.0
2014-Sep-01 09:33N 67°17' E 014°22'0 0.0
2014-Sep-01 08:33N 67°17' E 014°22'11 9.8
2014-Sep-01 07:29N 67°27' E 014°28'9 0.7
2014-Aug-31 19:08N 67°36' E 014°36'1831.5
2014-Aug-31 18:33N 67°18' E 014°23'1 1.0
2014-Aug-31 17:33N 67°17' E 014°22'7 0.3
2014-Aug-30 15:33N 67°24' E 014°26'7 6.9
2014-Aug-30 14:33N 67°17' E 014°22'0 0.0
2014-Aug-30 13:33N 67°17' E 014°22'0 0.0
2014-Aug-30 12:33N 67°17' E 014°22'0 0.0
2014-Aug-30 11:33N 67°17' E 014°22'0 0.0
2014-Aug-30 10:33N 67°17' E 014°22'1111.4
2014-Aug-30 09:33N 67°09' E 014°02'2 0.1
2014-Aug-29 14:33N 67°08' E 013°58'1313.2
2014-Aug-29 13:33N 67°17' E 014°22'0 0.0
2014-Aug-29 12:33N 67°17' E 014°22'0 0.0
2014-Aug-29 11:32N 67°17' E 014°22'0 0.0
2014-Aug-29 10:33N 67°17' E 014°22'1312.9
2014-Aug-29 09:33N 67°08' E 013°58'12 0.6
2014-Aug-28 15:07N 66°60' E 013°38'1220.7
2014-Aug-28 14:31N 67°07' E 014°03'1212.7
2014-Aug-28 13:33N 67°17' E 014°22'0 0.0
2014-Aug-28 12:33N 67°17' E 014°22'0 0.0
2014-Aug-28 11:33N 67°17' E 014°22'0 0.0
2014-Aug-28 10:33N 67°17' E 014°22'86 7.5
2014-Aug-27 23:06N 66°01' E 012°38'72 8.4
2014-Aug-27 14:32N 67°06' E 013°58'1414.5
2014-Aug-27 13:33N 67°17' E 014°22'0 0.0
2014-Aug-27 12:33N 67°17' E 014°22'0 0.0
2014-Aug-27 11:33N 67°17' E 014°22'0 0.0
2014-Aug-27 10:33N 67°17' E 014°22'0 0.0
2014-Aug-27 09:33N 67°17' E 014°22'0 0.0
2014-Aug-27 08:33N 67°17' E 014°22'7 0.4
2014-Aug-26 15:33N 67°23' E 014°30'7 6.8
2014-Aug-26 14:33N 67°17' E 014°22'0 0.0
2014-Aug-26 13:33N 67°17' E 014°22'0 0.0
2014-Aug-26 12:33N 67°17' E 014°22'0 0.0
2014-Aug-26 11:33N 67°17' E 014°22'0 0.1
2014-Aug-26 10:33N 67°17' E 014°23'1312.0
2014-Aug-26 09:28N 67°08' E 013°58'0 0.0
2014-Aug-25 14:31N 67°08' E 013°58'1313.7
2014-Aug-25 13:33N 67°17' E 014°22'0 0.0
2014-Aug-25 12:33N 67°17' E 014°22'0 0.0
2014-Aug-25 11:33N 67°17' E 014°22'0 0.0
2014-Aug-25 10:33N 67°17' E 014°22'7 7.0
2014-Aug-25 09:31N 67°12' E 014°09'6 0.3
2014-Aug-24 11:32N 67°08' E 013°58'1313.2
2014-Aug-24 10:33N 67°17' E 014°22'0 0.0
2014-Aug-24 09:33N 67°17' E 014°22'0 0.0
2014-Aug-24 08:33N 67°17' E 014°22'0 0.0
2014-Aug-24 07:33N 67°17' E 014°22'0 0.0
2014-Aug-24 06:33N 67°17' E 014°22'0 0.0
2014-Aug-24 05:33N 67°17' E 014°22'0 0.0
2014-Aug-24 04:33N 67°17' E 014°22'0 0.0
2014-Aug-24 03:33N 67°17' E 014°22'0 0.0
2014-Aug-24 02:33N 67°17' E 014°22'0 0.0
2014-Aug-24 01:33N 67°17' E 014°22'0 0.0
2014-Aug-24 00:33N 67°17' E 014°22'0 0.0
2014-Aug-23 23:33N 67°17' E 014°22'0 0.0
2014-Aug-23 22:33N 67°17' E 014°22'0 0.0
2014-Aug-23 21:33N 67°17' E 014°22'0 0.0
2014-Aug-23 20:33N 67°17' E 014°22'0 0.0
2014-Aug-23 19:33N 67°17' E 014°22'  
Track history (hours):
 
Tides and Currents Weather Stations Pressure Air Temp Water Temp Dewpoint Dewpoint Depression Visibility Wind Speed Wind Dir Waves Ship Positions

Salten

Last reported at 2014-Sep-02 14:26 UTC. Time now 2014-Sep-03 02:35 UTC.
Position N 67°10' E 014°03'.

Length 41 m; draft 1.5 m.

Type: High speed craft. MMSI: 259387000.

Date/timePositionNaut miles runAvg speedWind from/ knotsBaromVisibWave heightAir tempDewpointWater temp
2014-Sep-02 14:26N 67°10' E 014°03'1011.9
2014-Sep-02 13:33N 67°17' E 014°22'0 0.0
2014-Sep-02 12:33N 67°17' E 014°22'0 0.0
2014-Sep-02 11:33N 67°17' E 014°22'0 0.0
2014-Sep-02 10:33N 67°17' E 014°22'0 0.0
2014-Sep-02 09:33N 67°17' E 014°22'0 0.0
2014-Sep-02 08:33N 67°17' E 014°22'1212.2
2014-Sep-02 07:33N 67°28' E 014°33'5 0.3
2014-Sep-01 15:33N 67°25' E 014°27'8 7.8
2014-Sep-01 14:33N 67°17' E 014°22'0 0.0
2014-Sep-01 13:33N 67°17' E 014°22'0 0.0
2014-Sep-01 12:33N 67°17' E 014°22'0 0.0
2014-Sep-01 11:33N 67°17' E 014°22'0 0.0
2014-Sep-01 10:33N 67°17' E 014°22'0 0.0
2014-Sep-01 09:33N 67°17' E 014°22'0 0.0
2014-Sep-01 08:33N 67°17' E 014°22'11 9.8
2014-Sep-01 07:29N 67°27' E 014°28'9 0.7
2014-Aug-31 19:08N 67°36' E 014°36'1831.5
2014-Aug-31 18:33N 67°18' E 014°23'1 1.0
2014-Aug-31 17:33N 67°17' E 014°22'7 0.3
2014-Aug-30 15:33N 67°24' E 014°26'7 6.9
2014-Aug-30 14:33N 67°17' E 014°22'0 0.0
2014-Aug-30 13:33N 67°17' E 014°22'0 0.0
2014-Aug-30 12:33N 67°17' E 014°22'0 0.0
2014-Aug-30 11:33N 67°17' E 014°22'0 0.0
2014-Aug-30 10:33N 67°17' E 014°22'1111.4
2014-Aug-30 09:33N 67°09' E 014°02'2 0.1
2014-Aug-29 14:33N 67°08' E 013°58'1313.2
2014-Aug-29 13:33N 67°17' E 014°22'0 0.0
2014-Aug-29 12:33N 67°17' E 014°22'0 0.0
2014-Aug-29 11:32N 67°17' E 014°22'0 0.0
2014-Aug-29 10:33N 67°17' E 014°22'1312.9
2014-Aug-29 09:33N 67°08' E 013°58'12 0.6
2014-Aug-28 15:07N 66°60' E 013°38'1220.7
2014-Aug-28 14:31N 67°07' E 014°03'1212.7
2014-Aug-28 13:33N 67°17' E 014°22'0 0.0
2014-Aug-28 12:33N 67°17' E 014°22'0 0.0
2014-Aug-28 11:33N 67°17' E 014°22'0 0.0
2014-Aug-28 10:33N 67°17' E 014°22'86 7.5
2014-Aug-27 23:06N 66°01' E 012°38'72 8.4
2014-Aug-27 14:32N 67°06' E 013°58'1414.5
2014-Aug-27 13:33N 67°17' E 014°22'0 0.0
2014-Aug-27 12:33N 67°17' E 014°22'0 0.0
2014-Aug-27 11:33N 67°17' E 014°22'0 0.0
2014-Aug-27 10:33N 67°17' E 014°22'0 0.0
2014-Aug-27 09:33N 67°17' E 014°22'0 0.0
2014-Aug-27 08:33N 67°17' E 014°22'7 0.4
2014-Aug-26 15:33N 67°23' E 014°30'7 6.8
2014-Aug-26 14:33N 67°17' E 014°22'0 0.0
2014-Aug-26 13:33N 67°17' E 014°22'0 0.0
2014-Aug-26 12:33N 67°17' E 014°22'0 0.0
2014-Aug-26 11:33N 67°17' E 014°22'0 0.1
2014-Aug-26 10:33N 67°17' E 014°23'1312.0
2014-Aug-26 09:28N 67°08' E 013°58'0 0.0
2014-Aug-25 14:31N 67°08' E 013°58'1313.7
2014-Aug-25 13:33N 67°17' E 014°22'0 0.0
2014-Aug-25 12:33N 67°17' E 014°22'0 0.0
2014-Aug-25 11:33N 67°17' E 014°22'0 0.0
2014-Aug-25 10:33N 67°17' E 014°22'7 7.0
2014-Aug-25 09:31N 67°12' E 014°09'6 0.3
2014-Aug-24 11:32N 67°08' E 013°58'1313.2
2014-Aug-24 10:33N 67°17' E 014°22'0 0.0
2014-Aug-24 09:33N 67°17' E 014°22'0 0.0
2014-Aug-24 08:33N 67°17' E 014°22'0 0.0
2014-Aug-24 07:33N 67°17' E 014°22'0 0.0
2014-Aug-24 06:33N 67°17' E 014°22'0 0.0
2014-Aug-24 05:33N 67°17' E 014°22'0 0.0
2014-Aug-24 04:33N 67°17' E 014°22'0 0.0
2014-Aug-24 03:33N 67°17' E 014°22'0 0.0
2014-Aug-24 02:33N 67°17' E 014°22'0 0.0
2014-Aug-24 01:33N 67°17' E 014°22'0 0.0
2014-Aug-24 00:33N 67°17' E 014°22'0 0.0
2014-Aug-23 23:33N 67°17' E 014°22'0 0.0
2014-Aug-23 22:33N 67°17' E 014°22'0 0.0
2014-Aug-23 21:33N 67°17' E 014°22'0 0.0
2014-Aug-23 20:33N 67°17' E 014°22'0 0.0
2014-Aug-23 19:33N 67°17' E 014°22'  

Dump ship's entire track history